createdAt,value
2023-03-25T00:02:01.703Z,2.30
2023-03-25T00:04:35.212Z,2.70
2023-03-25T00:07:02.639Z,2.13
2023-03-25T00:09:31.868Z,2.57
2023-03-25T00:11:58.793Z,2.07
2023-03-25T00:14:25.664Z,1.83
2023-03-25T00:16:53.216Z,2.27
2023-03-25T00:19:21.247Z,2.20
2023-03-25T00:21:54.109Z,2.77
2023-03-25T00:24:20.966Z,2.10
2023-03-25T00:26:48.664Z,1.97
2023-03-25T00:29:16.992Z,2.17
2023-03-25T00:31:44.086Z,2.67
2023-03-25T00:34:14.846Z,2.20
2023-03-25T00:36:43.695Z,2.13
2023-03-25T00:39:13.513Z,2.43
2023-03-25T00:41:43.491Z,1.80
2023-03-25T00:44:17.137Z,1.90
2023-03-25T00:46:47.175Z,2.00
2023-03-25T00:49:14.113Z,2.00
2023-03-25T00:51:52.853Z,2.07
2023-03-25T00:54:22.290Z,2.63
2023-03-25T00:56:52.856Z,2.40
2023-03-25T00:59:19.898Z,2.30
2023-03-25T01:01:46.808Z,2.60
2023-03-25T01:04:13.753Z,2.00
2023-03-25T01:06:44.362Z,1.90
2023-03-25T01:09:15.225Z,1.60
2023-03-25T01:11:46.874Z,2.30
2023-03-25T01:14:21.023Z,2.20
2023-03-25T01:16:48.055Z,3.00
2023-03-25T01:19:16.313Z,2.53
2023-03-25T01:21:45.187Z,2.23
2023-03-25T01:24:14.822Z,2.53
2023-03-25T01:26:46.109Z,2.10
2023-03-25T01:29:17.732Z,2.13
2023-03-25T01:31:47.595Z,2.70
2023-03-25T01:34:17.382Z,2.10
2023-03-25T01:36:46.702Z,2.13
2023-03-25T01:39:18.597Z,2.13
2023-03-25T01:41:51.085Z,2.20
2023-03-25T01:44:24.145Z,2.30
2023-03-25T01:46:56.328Z,2.57
2023-03-25T01:49:30.171Z,2.10
2023-03-25T01:52:05.805Z,2.50
2023-03-25T01:54:42.580Z,2.27
2023-03-25T01:57:18.432Z,2.23
2023-03-25T01:59:46.313Z,1.90
2023-03-25T02:02:17.784Z,2.30
2023-03-25T02:05:00.137Z,2.07
2023-03-25T02:07:42.578Z,2.10
2023-03-25T02:10:12.864Z,1.90
2023-03-25T02:12:40.972Z,2.03
2023-03-25T02:15:11.045Z,2.10
2023-03-25T02:18:02.229Z,2.77
2023-03-25T02:20:54.320Z,2.27
2023-03-25T02:23:43.205Z,2.67
2023-03-25T02:26:50.106Z,1.90
2023-03-25T02:29:54.032Z,2.13
2023-03-25T02:33:30.296Z,2.77
2023-03-25T02:36:41.411Z,2.03
2023-03-25T02:39:36.031Z,2.50
2023-03-25T02:42:35.160Z,2.23
2023-03-25T02:45:49.162Z,1.97
2023-03-25T02:48:27.753Z,1.97
2023-03-25T02:51:00.922Z,2.90
2023-03-25T02:53:34.975Z,2.50
2023-03-25T02:56:10.973Z,2.60
2023-03-25T02:58:40.792Z,2.03
2023-03-25T03:01:10.016Z,2.70
2023-03-25T03:03:39.249Z,2.10
2023-03-25T03:06:08.080Z,3.10
2023-03-25T03:08:54.038Z,2.87
2023-03-25T03:11:30.618Z,3.07
2023-03-25T03:14:07.200Z,2.80
2023-03-25T03:16:42.709Z,3.27
2023-03-25T03:20:02.071Z,3.77
2023-03-25T03:22:56.016Z,3.20
2023-03-25T03:25:47.587Z,4.03
2023-03-25T03:28:24.735Z,3.73
2023-03-25T03:31:11.213Z,3.93
2023-03-25T03:33:57.851Z,3.93
2023-03-25T03:36:31.244Z,3.40
2023-03-25T03:39:23.618Z,4.43
2023-03-25T03:41:59.577Z,3.70
2023-03-25T03:44:33.406Z,4.10
2023-03-25T03:47:11.852Z,3.33
2023-03-25T03:49:43.542Z,3.43
2023-03-25T03:52:45.197Z,4.10
2023-03-25T03:55:19.377Z,3.60
2023-03-25T03:57:53.108Z,3.37
2023-03-25T04:00:29.592Z,3.80
2023-03-25T04:03:08.866Z,3.07
2023-03-25T04:05:40.896Z,3.60
2023-03-25T04:08:29.518Z,3.10
2023-03-25T04:11:29.096Z,3.97
2023-03-25T04:13:59.249Z,3.30
2023-03-25T04:16:26.207Z,3.20
2023-03-25T04:18:55.769Z,3.77
2023-03-25T04:21:25.420Z,3.30
2023-03-25T04:23:54.494Z,3.43
2023-03-25T04:26:21.676Z,3.57
2023-03-25T04:28:51.701Z,3.33
2023-03-25T04:31:21.753Z,3.27
2023-03-25T04:33:51.906Z,2.80
2023-03-25T04:36:20.129Z,3.70
2023-03-25T04:38:47.038Z,2.70
2023-03-25T04:41:15.627Z,3.67
2023-03-25T04:43:45.079Z,3.90
2023-03-25T04:46:17.936Z,3.40
2023-03-25T04:48:45.622Z,3.80
2023-03-25T04:51:13.629Z,3.63
2023-03-25T04:53:42.620Z,3.53
2023-03-25T04:56:16.215Z,4.00
2023-03-25T04:58:46.613Z,3.63
2023-03-25T05:01:30.896Z,3.00
2023-03-25T05:04:06.904Z,3.33
2023-03-25T05:06:38.321Z,3.57
2023-03-25T05:09:13.959Z,4.10
2023-03-25T05:11:41.873Z,3.27
2023-03-25T05:14:10.910Z,3.50
2023-03-25T05:16:40.866Z,3.30
2023-03-25T05:19:08.214Z,3.90
2023-03-25T05:21:43.877Z,3.13
2023-03-25T05:24:15.204Z,3.40
2023-03-25T05:26:42.991Z,2.90
2023-03-25T05:29:14.076Z,3.70
2023-03-25T05:31:46.152Z,3.83
2023-03-25T05:34:14.661Z,3.63
2023-03-25T05:36:41.791Z,3.33
2023-03-25T05:39:11.072Z,2.97
2023-03-25T05:41:45.703Z,4.37
2023-03-25T05:44:18.799Z,3.90
2023-03-25T05:46:45.608Z,3.53
2023-03-25T05:49:12.502Z,4.70
2023-03-25T05:51:41.988Z,3.53
2023-03-25T05:54:12.267Z,4.03
2023-03-25T05:56:40.239Z,3.93
2023-03-25T05:59:08.345Z,4.40
2023-03-25T06:01:37.705Z,4.13
2023-03-25T06:04:05.290Z,3.97
2023-03-25T06:06:34.237Z,3.73
2023-03-25T06:09:02.559Z,3.13
2023-03-25T06:11:37.777Z,4.43
2023-03-25T06:14:05.906Z,4.23
2023-03-25T06:16:33.771Z,4.60
2023-03-25T06:19:01.132Z,3.90
2023-03-25T06:21:32.599Z,3.60
2023-03-25T06:24:02.286Z,4.00
2023-03-25T06:26:32.641Z,3.30
2023-03-25T06:29:02.573Z,3.70
2023-03-25T06:31:34.251Z,4.03
2023-03-25T06:34:01.610Z,3.93
2023-03-25T06:36:31.491Z,4.40
2023-03-25T06:38:58.483Z,4.03
2023-03-25T06:41:28.118Z,4.13
2023-03-25T06:43:57.920Z,4.40
2023-03-25T06:46:24.830Z,4.07
2023-03-25T06:48:51.863Z,3.53
2023-03-25T06:51:18.733Z,3.20
2023-03-25T06:53:47.694Z,3.30
2023-03-25T06:56:14.715Z,4.20
2023-03-25T06:58:41.989Z,4.80
2023-03-25T07:01:09.002Z,4.13
2023-03-25T07:03:37.264Z,5.60
2023-03-25T07:06:06.296Z,4.67
2023-03-25T07:08:34.084Z,5.13
2023-03-25T07:11:09.067Z,3.17
2023-03-25T07:13:37.999Z,3.10
2023-03-25T07:16:08.651Z,3.30
2023-03-25T07:18:40.361Z,2.90
2023-03-25T07:21:09.802Z,2.80
2023-03-25T07:23:36.741Z,2.83
2023-03-25T07:26:13.316Z,3.30
2023-03-25T07:28:40.776Z,2.50
2023-03-25T07:31:17.902Z,2.70
2023-03-25T07:33:44.917Z,2.87
2023-03-25T07:36:14.547Z,2.43
2023-03-25T07:38:41.483Z,2.33
2023-03-25T07:41:14.265Z,2.37
2023-03-25T07:43:43.651Z,2.20
2023-03-25T07:46:10.515Z,2.20
2023-03-25T07:48:37.428Z,2.00
2023-03-25T07:51:04.559Z,2.40
2023-03-25T07:53:34.530Z,2.70
2023-03-25T07:56:03.469Z,2.73
2023-03-25T07:58:35.261Z,2.13
2023-03-25T08:01:02.296Z,2.30
2023-03-25T08:03:31.986Z,1.70
2023-03-25T08:06:02.501Z,2.23
2023-03-25T08:08:30.133Z,2.40
2023-03-25T08:11:01.669Z,2.60
2023-03-25T08:13:31.090Z,2.67
2023-03-25T08:15:58.369Z,2.07
2023-03-25T08:18:25.921Z,2.57
2023-03-25T08:20:53.669Z,2.27
2023-03-25T08:23:23.409Z,1.90
2023-03-25T08:25:51.719Z,1.70
2023-03-25T08:28:24.208Z,2.00
2023-03-25T08:30:55.553Z,2.93
2023-03-25T08:33:33.977Z,2.10
2023-03-25T08:36:03.627Z,2.67
2023-03-25T08:38:35.283Z,2.77
2023-03-25T08:41:05.272Z,3.00
2023-03-25T08:43:37.006Z,2.47
2023-03-25T08:46:04.100Z,2.70
2023-03-25T08:48:33.507Z,2.40
2023-03-25T08:51:03.417Z,1.90
2023-03-25T08:53:33.129Z,2.57
2023-03-25T08:56:00.201Z,1.87
2023-03-25T08:58:27.306Z,1.90
2023-03-25T09:00:56.233Z,1.97
2023-03-25T09:03:26.941Z,1.90
2023-03-25T09:05:56.428Z,1.70
2023-03-25T09:08:26.053Z,1.60
2023-03-25T09:11:00.454Z,1.63
2023-03-25T09:13:27.302Z,2.00
2023-03-25T09:15:54.578Z,2.20
2023-03-25T09:18:21.700Z,2.30
2023-03-25T09:20:48.602Z,2.13
2023-03-25T09:23:16.293Z,1.97
2023-03-25T09:25:43.197Z,1.60
2023-03-25T09:28:10.361Z,1.80
2023-03-25T09:30:39.289Z,2.00
2023-03-25T09:33:06.830Z,1.73
2023-03-25T09:35:34.253Z,1.90
2023-03-25T09:38:01.942Z,2.10
2023-03-25T09:40:29.037Z,2.27
2023-03-25T09:43:42.521Z,2.67
2023-03-25T09:46:11.940Z,2.97
2023-03-25T09:48:45.335Z,2.47
2023-03-25T09:51:22.977Z,0.97
2023-03-25T09:54:16.686Z,0.70
2023-03-25T09:56:46.139Z,0.90
2023-03-25T09:59:25.982Z,0.70
2023-03-25T10:02:28.720Z,0.67
2023-03-25T10:05:23.051Z,0.73
2023-03-25T10:08:13.427Z,0.80
2023-03-25T10:11:04.350Z,1.10
2023-03-25T10:13:48.813Z,0.70
2023-03-25T10:16:37.083Z,0.90
2023-03-25T10:19:18.957Z,0.90
2023-03-25T10:22:28.814Z,0.90
2023-03-25T10:25:06.488Z,0.90
2023-03-25T10:27:33.514Z,1.40
2023-03-25T10:30:11.970Z,1.30
2023-03-25T10:32:47.418Z,1.33
2023-03-25T10:35:26.432Z,1.67
2023-03-25T10:38:02.048Z,1.33
2023-03-25T10:40:44.900Z,1.20
2023-03-25T10:43:31.998Z,1.70
2023-03-25T10:46:13.235Z,1.27
2023-03-25T10:48:43.077Z,1.10
2023-03-25T10:51:13.160Z,1.80
2023-03-25T10:53:41.942Z,1.20
2023-03-25T10:56:41.642Z,1.40
2023-03-25T10:59:56.828Z,1.20
2023-03-25T11:02:28.131Z,1.70
2023-03-25T11:05:03.130Z,1.23
2023-03-25T11:07:42.285Z,1.20
2023-03-25T11:10:28.405Z,2.10
2023-03-25T11:13:03.724Z,1.50
2023-03-25T11:15:37.166Z,1.80
2023-03-25T11:18:15.382Z,1.57
2023-03-25T11:21:02.506Z,1.50
2023-03-25T11:23:42.350Z,1.77
2023-03-25T11:26:20.871Z,1.97
2023-03-25T11:29:15.295Z,1.80
2023-03-25T11:31:46.209Z,1.67
2023-03-25T11:34:13.066Z,2.13
2023-03-25T11:36:54.984Z,2.07
2023-03-25T11:39:40.359Z,1.90
2023-03-25T11:42:35.874Z,2.47
2023-03-25T11:45:14.021Z,2.00
2023-03-25T11:47:42.109Z,1.77
2023-03-25T11:50:23.910Z,2.07
2023-03-25T11:52:59.187Z,2.70
2023-03-25T11:55:51.594Z,2.10
2023-03-25T11:58:28.557Z,1.50
2023-03-25T12:01:08.039Z,2.53
2023-03-25T12:03:39.402Z,2.00
2023-03-25T12:06:11.363Z,2.20
2023-03-25T12:08:58.545Z,2.63
2023-03-25T12:11:36.687Z,3.17
2023-03-25T12:14:18.058Z,2.80
2023-03-25T12:17:02.730Z,1.20
2023-03-25T12:19:59.726Z,0.90
2023-03-25T12:23:06.355Z,1.10
2023-03-25T12:26:11.098Z,2.17
2023-03-25T12:29:02.017Z,1.20
2023-03-25T12:31:50.804Z,1.20
2023-03-25T12:35:16.605Z,0.93
2023-03-25T12:38:27.279Z,1.67
2023-03-25T12:41:50.059Z,0.90
2023-03-25T12:45:13.156Z,0.80
2023-03-25T12:47:43.411Z,1.47
2023-03-25T12:50:22.962Z,1.50
2023-03-25T12:53:04.422Z,1.63
2023-03-25T12:56:14.210Z,1.70
2023-03-25T12:59:03.327Z,1.83
2023-03-25T13:02:03.511Z,1.60
2023-03-25T13:04:36.470Z,2.10
2023-03-25T13:07:10.468Z,2.37
2023-03-25T13:10:13.369Z,1.93
2023-03-25T13:12:54.460Z,1.93
2023-03-25T13:15:48.309Z,2.20
2023-03-25T13:18:48.139Z,2.73
2023-03-25T13:21:30.173Z,2.27
2023-03-25T13:24:07.189Z,3.10
2023-03-25T13:26:36.359Z,2.70
2023-03-25T13:29:06.314Z,3.10
2023-03-25T13:31:37.405Z,2.80
2023-03-25T13:34:14.094Z,2.93
2023-03-25T13:36:57.100Z,2.50
2023-03-25T13:39:48.015Z,2.07
2023-03-25T13:42:52.890Z,2.00
2023-03-25T13:45:23.231Z,2.13
2023-03-25T13:48:01.946Z,2.17
2023-03-25T13:50:33.692Z,1.70
2023-03-25T13:53:15.828Z,2.43
2023-03-25T13:56:13.280Z,2.00
2023-03-25T13:59:04.806Z,2.53
2023-03-25T14:02:09.157Z,2.00
2023-03-25T14:05:06.891Z,2.10
2023-03-25T14:08:07.306Z,2.23
2023-03-25T14:10:58.747Z,1.57
2023-03-25T14:13:39.422Z,1.90
2023-03-25T14:16:20.538Z,2.03
2023-03-25T14:18:53.001Z,1.93
2023-03-25T14:21:59.393Z,2.90
2023-03-25T14:24:37.201Z,2.30
2023-03-25T14:27:44.233Z,1.93
2023-03-25T14:30:22.473Z,1.80
2023-03-25T14:32:51.880Z,2.27
2023-03-25T14:35:34.437Z,1.83
2023-03-25T14:38:09.893Z,2.00
2023-03-25T14:40:50.772Z,2.60
2023-03-25T14:43:48.541Z,1.47
2023-03-25T14:46:21.718Z,1.90
2023-03-25T14:49:30.089Z,1.83
2023-03-25T14:52:00.744Z,1.40
2023-03-25T14:54:33.597Z,1.30
2023-03-25T14:57:10.077Z,0.97
2023-03-25T14:59:43.372Z,1.63
2023-03-25T15:02:25.236Z,1.97
2023-03-25T15:05:06.829Z,1.30
2023-03-25T15:07:45.462Z,1.70
2023-03-25T15:10:32.106Z,2.07
2023-03-25T15:13:21.540Z,1.80
2023-03-25T15:15:50.312Z,1.67
2023-03-25T15:18:35.667Z,1.77
2023-03-25T15:21:16.518Z,1.40
2023-03-25T15:23:47.583Z,1.10
2023-03-25T15:26:40.892Z,1.70
2023-03-25T15:29:47.552Z,1.43
2023-03-25T15:32:23.201Z,1.40
2023-03-25T15:35:13.900Z,1.83
2023-03-25T15:38:08.444Z,1.50
2023-03-25T15:41:19.532Z,1.57
2023-03-25T15:44:27.725Z,1.50
2023-03-25T15:47:29.732Z,1.50
2023-03-25T15:50:24.554Z,1.67
2023-03-25T15:53:41.734Z,1.73
2023-03-25T15:56:16.550Z,1.80
2023-03-25T15:58:55.573Z,1.90
2023-03-25T16:01:31.795Z,1.37
2023-03-25T16:04:21.222Z,1.73
2023-03-25T16:06:53.184Z,1.57
2023-03-25T16:09:29.481Z,1.20
2023-03-25T16:12:03.513Z,1.97
2023-03-25T16:14:33.401Z,1.60
2023-03-25T16:17:07.278Z,2.13
2023-03-25T16:19:46.828Z,2.67
2023-03-25T16:22:34.448Z,2.70
2023-03-25T16:25:14.535Z,2.23
2023-03-25T16:27:50.898Z,1.53
2023-03-25T16:30:39.479Z,1.60
2023-03-25T16:33:14.525Z,1.43
2023-03-25T16:35:46.974Z,1.10
2023-03-25T16:38:22.699Z,1.70
2023-03-25T16:40:50.651Z,1.43
2023-03-25T16:43:24.256Z,1.53
2023-03-25T16:45:53.832Z,1.53
2023-03-25T16:48:34.923Z,1.53
2023-03-25T16:51:16.745Z,1.33
2023-03-25T16:53:44.776Z,1.10
2023-03-25T16:56:14.745Z,1.30
2023-03-25T16:59:08.744Z,3.10
2023-03-25T17:01:43.201Z,3.00
2023-03-25T17:04:18.805Z,1.57
2023-03-25T17:06:52.880Z,1.73
2023-03-25T17:09:34.210Z,2.10
2023-03-25T17:12:08.073Z,1.30
2023-03-25T17:14:40.169Z,1.70
2023-03-25T17:17:41.767Z,1.57
2023-03-25T17:20:19.639Z,1.57
2023-03-25T17:23:25.349Z,3.20
2023-03-25T17:26:09.322Z,3.30
2023-03-25T17:28:43.747Z,2.17
2023-03-25T17:31:29.758Z,1.77
2023-03-25T17:34:21.353Z,2.10
2023-03-25T17:36:52.969Z,1.97
2023-03-25T17:39:24.759Z,2.13
2023-03-25T17:42:01.660Z,2.00
2023-03-25T17:44:46.629Z,1.50
2023-03-25T17:47:20.721Z,0.90
2023-03-25T17:49:52.569Z,1.07
2023-03-25T17:52:25.247Z,0.93
2023-03-25T17:54:52.312Z,1.47
2023-03-25T17:57:22.578Z,1.10
2023-03-25T17:59:52.278Z,0.80
2023-03-25T18:02:23.930Z,1.07
2023-03-25T18:04:51.519Z,1.40
2023-03-25T18:07:22.518Z,1.10
2023-03-25T18:09:49.395Z,1.27
2023-03-25T18:12:16.273Z,1.10
2023-03-25T18:14:45.960Z,1.50
2023-03-25T18:17:17.416Z,1.50
2023-03-25T18:19:44.330Z,1.70
2023-03-25T18:22:19.607Z,1.07
2023-03-25T18:24:49.806Z,1.20
2023-03-25T18:27:21.089Z,1.53
2023-03-25T18:29:55.328Z,1.50
2023-03-25T18:32:24.731Z,1.30
2023-03-25T18:34:52.841Z,1.30
2023-03-25T18:37:19.693Z,1.40
2023-03-25T18:39:50.009Z,1.50
2023-03-25T18:42:18.963Z,1.20
2023-03-25T18:44:49.673Z,1.63
2023-03-25T18:47:20.555Z,1.70
2023-03-25T18:49:50.423Z,1.80
2023-03-25T18:52:17.270Z,1.77
2023-03-25T18:54:44.260Z,1.60
2023-03-25T18:57:15.895Z,1.70
2023-03-25T18:59:46.278Z,2.20
2023-03-25T19:02:13.255Z,1.67
2023-03-25T19:04:54.180Z,1.60
2023-03-25T19:07:32.991Z,1.50
2023-03-25T19:09:59.931Z,1.67
2023-03-25T19:12:26.802Z,2.07
2023-03-25T19:14:53.740Z,2.10
2023-03-25T19:17:23.285Z,1.33
2023-03-25T19:19:52.396Z,1.80
2023-03-25T19:22:19.780Z,2.17
2023-03-25T19:24:48.067Z,1.80
2023-03-25T19:27:14.920Z,1.77
2023-03-25T19:29:41.973Z,2.17
2023-03-25T19:32:08.908Z,3.90
2023-03-25T19:34:47.533Z,2.50
2023-03-25T19:37:15.844Z,2.67
2023-03-25T19:39:49.979Z,2.00
2023-03-25T19:42:16.824Z,2.40
2023-03-25T19:44:44.603Z,2.33
2023-03-25T19:47:12.532Z,1.83
2023-03-25T19:49:40.400Z,2.10
2023-03-25T19:52:07.882Z,1.80
2023-03-25T19:54:37.804Z,2.10
2023-03-25T19:57:09.528Z,1.90
2023-03-25T19:59:37.078Z,2.03
2023-03-25T20:02:04.231Z,1.90
2023-03-25T20:04:31.760Z,1.90
2023-03-25T20:07:01.129Z,2.00
2023-03-25T20:09:30.138Z,1.80
2023-03-25T20:11:57.450Z,2.03
2023-03-25T20:14:24.306Z,1.50
2023-03-25T20:16:55.870Z,1.60
2023-03-25T20:19:22.723Z,1.63
2023-03-25T20:21:49.571Z,1.30
2023-03-25T20:24:16.540Z,2.00
2023-03-25T20:26:43.397Z,2.33
2023-03-25T20:29:13.270Z,2.00
2023-03-25T20:31:40.517Z,1.40
2023-03-25T20:34:12.749Z,1.37
2023-03-25T20:36:42.233Z,1.57
2023-03-25T20:39:14.088Z,1.50
2023-03-25T20:41:43.500Z,1.47
2023-03-25T20:44:15.415Z,1.50
2023-03-25T20:46:46.513Z,1.40
2023-03-25T20:49:15.401Z,1.40
2023-03-25T20:51:43.365Z,2.10
2023-03-25T20:54:16.696Z,1.50
2023-03-25T20:56:51.181Z,1.70
2023-03-25T20:59:19.639Z,1.40
2023-03-25T21:01:54.260Z,1.63
2023-03-25T21:04:22.575Z,1.90
2023-03-25T21:06:55.040Z,1.50
2023-03-25T21:09:21.886Z,1.87
2023-03-25T21:11:51.621Z,2.10
2023-03-25T21:14:18.847Z,1.97
2023-03-25T21:16:46.257Z,1.90
2023-03-25T21:19:15.925Z,1.63
2023-03-25T21:21:47.470Z,1.43
2023-03-25T21:24:16.697Z,1.53
2023-03-25T21:26:46.160Z,1.50
2023-03-25T21:29:13.004Z,1.50
2023-03-25T21:31:45.568Z,1.70
2023-03-25T21:34:15.708Z,1.90
2023-03-25T21:36:43.329Z,1.67
2023-03-25T21:39:13.500Z,2.27
2023-03-25T21:41:40.746Z,2.10
2023-03-25T21:44:07.827Z,1.57
2023-03-25T21:46:36.679Z,1.70
2023-03-25T21:49:06.289Z,2.07
2023-03-25T21:51:35.923Z,1.80
2023-03-25T21:54:06.402Z,2.30
2023-03-25T21:56:34.757Z,1.80
2023-03-25T21:59:03.500Z,1.47
2023-03-25T22:01:30.680Z,1.73
2023-03-25T22:04:02.572Z,1.73
2023-03-25T22:06:35.562Z,2.13
2023-03-25T22:09:09.160Z,1.40
2023-03-25T22:11:39.776Z,2.00
2023-03-25T22:14:07.988Z,2.00
2023-03-25T22:16:35.486Z,2.00
2023-03-25T22:19:05.122Z,1.97
2023-03-25T22:21:36.910Z,2.30
2023-03-25T22:24:06.951Z,2.27
2023-03-25T22:26:35.490Z,2.27
2023-03-25T22:29:06.107Z,2.57
2023-03-25T22:31:39.293Z,2.60
2023-03-25T22:34:11.116Z,2.40
2023-03-25T22:36:49.331Z,2.30
2023-03-25T22:39:20.783Z,1.83
2023-03-25T22:41:47.876Z,3.17
2023-03-25T22:44:16.996Z,2.23
2023-03-25T22:46:46.351Z,2.73
2023-03-25T22:49:14.222Z,2.40
2023-03-25T22:51:41.620Z,2.57
2023-03-25T22:54:11.672Z,2.40
2023-03-25T22:56:38.735Z,1.93
2023-03-25T22:59:07.384Z,2.80
2023-03-25T23:01:37.070Z,2.70
2023-03-25T23:04:04.698Z,2.73
2023-03-25T23:06:32.988Z,2.60
2023-03-25T23:08:59.958Z,2.70
2023-03-25T23:11:29.472Z,3.10
2023-03-25T23:14:07.507Z,2.47
2023-03-25T23:16:35.691Z,2.53
2023-03-25T23:19:05.630Z,2.33
2023-03-25T23:21:33.727Z,2.50
2023-03-25T23:24:05.225Z,2.70
2023-03-25T23:26:38.886Z,2.20
2023-03-25T23:29:11.928Z,2.43
2023-03-25T23:31:42.365Z,2.87
2023-03-25T23:34:13.239Z,2.70
2023-03-25T23:36:40.771Z,2.27
2023-03-25T23:39:15.316Z,2.47
2023-03-25T23:41:42.471Z,2.23
2023-03-25T23:44:13.200Z,3.77
2023-03-25T23:46:43.128Z,2.63
2023-03-25T23:49:11.096Z,2.87
2023-03-25T23:51:42.244Z,2.10
2023-03-25T23:54:12.720Z,2.73
2023-03-25T23:56:49.786Z,2.20
2023-03-25T23:59:16.790Z,1.77
